sensor_id;sensor_type;location;lat;lon;timestamp;temperature;humidity
4749;DHT22;2388;53.582;9.962;2023-02-15T00:01:23;5.30;99.90
4749;DHT22;2388;53.582;9.962;2023-02-15T00:03:49;5.30;99.90
4749;DHT22;2388;53.582;9.962;2023-02-15T00:06:14;5.40;99.90
4749;DHT22;2388;53.582;9.962;2023-02-15T00:08:40;5.40;99.90
4749;DHT22;2388;53.582;9.962;2023-02-15T00:11:09;5.40;99.90
4749;DHT22;2388;53.582;9.962;2023-02-15T00:13:35;5.40;99.90
4749;DHT22;2388;53.582;9.962;2023-02-15T00:16:06;5.40;99.90
4749;DHT22;2388;53.582;9.962;2023-02-15T00:18:32;5.40;99.90
4749;DHT22;2388;53.582;9.962;2023-02-15T00:20:58;5.40;99.90
4749;DHT22;2388;53.582;9.962;2023-02-15T00:23:24;5.30;99.90
4749;DHT22;2388;53.582;9.962;2023-02-15T00:25:49;5.20;99.90
4749;DHT22;2388;53.582;9.962;2023-02-15T00:28:15;5.20;99.90
4749;DHT22;2388;53.582;9.962;2023-02-15T00:30:40;5.20;99.90
4749;DHT22;2388;53.582;9.962;2023-02-15T00:33:06;5.20;99.90
4749;DHT22;2388;53.582;9.962;2023-02-15T00:35:32;5.10;99.90
4749;DHT22;2388;53.582;9.962;2023-02-15T00:37:57;5.20;99.90
4749;DHT22;2388;53.582;9.962;2023-02-15T00:40:22;5.30;99.90
4749;DHT22;2388;53.582;9.962;2023-02-15T00:42:48;5.30;99.90
4749;DHT22;2388;53.582;9.962;2023-02-15T00:45:13;5.30;99.90
4749;DHT22;2388;53.582;9.962;2023-02-15T00:47:39;5.30;99.90
4749;DHT22;2388;53.582;9.962;2023-02-15T00:50:05;5.30;99.90
4749;DHT22;2388;53.582;9.962;2023-02-15T00:52:31;5.40;99.90
4749;DHT22;2388;53.582;9.962;2023-02-15T00:54:56;5.40;99.90
4749;DHT22;2388;53.582;9.962;2023-02-15T00:57:22;5.40;99.90
4749;DHT22;2388;53.582;9.962;2023-02-15T00:59:47;5.40;99.90
4749;DHT22;2388;53.582;9.962;2023-02-15T01:02:13;5.40;99.90
4749;DHT22;2388;53.582;9.962;2023-02-15T01:04:38;5.40;99.90
4749;DHT22;2388;53.582;9.962;2023-02-15T01:07:04;5.40;99.90
4749;DHT22;2388;53.582;9.962;2023-02-15T01:09:29;5.30;99.90
4749;DHT22;2388;53.582;9.962;2023-02-15T01:11:55;5.30;99.90
4749;DHT22;2388;53.582;9.962;2023-02-15T01:14:20;5.30;99.90
4749;DHT22;2388;53.582;9.962;2023-02-15T01:16:46;5.40;99.90
4749;DHT22;2388;53.582;9.962;2023-02-15T01:19:12;5.40;99.90
4749;DHT22;2388;53.582;9.962;2023-02-15T01:21:37;5.50;99.90
4749;DHT22;2388;53.582;9.962;2023-02-15T01:24:03;5.50;99.90
4749;DHT22;2388;53.582;9.962;2023-02-15T01:26:29;5.50;99.90
4749;DHT22;2388;53.582;9.962;2023-02-15T01:28:54;5.40;99.90
4749;DHT22;2388;53.582;9.962;2023-02-15T01:31:21;5.40;99.90
4749;DHT22;2388;53.582;9.962;2023-02-15T01:33:47;5.40;99.90
4749;DHT22;2388;53.582;9.962;2023-02-15T01:36:13;5.40;99.90
4749;DHT22;2388;53.582;9.962;2023-02-15T01:38:39;5.40;99.90
4749;DHT22;2388;53.582;9.962;2023-02-15T01:41:05;5.50;99.90
4749;DHT22;2388;53.582;9.962;2023-02-15T01:43:51;5.50;99.90
4749;DHT22;2388;53.582;9.962;2023-02-15T01:46:19;5.50;99.90
4749;DHT22;2388;53.582;9.962;2023-02-15T01:48:52;5.40;99.90
4749;DHT22;2388;53.582;9.962;2023-02-15T01:51:22;5.30;99.90
4749;DHT22;2388;53.582;9.962;2023-02-15T01:53:56;5.40;99.90
4749;DHT22;2388;53.582;9.962;2023-02-15T01:56:30;5.30;99.90
4749;DHT22;2388;53.582;9.962;2023-02-15T01:59:00;5.30;99.90
4749;DHT22;2388;53.582;9.962;2023-02-15T02:01:27;5.30;99.90
4749;DHT22;2388;53.582;9.962;2023-02-15T02:06:26;5.30;99.90
4749;DHT22;2388;53.582;9.962;2023-02-15T02:08:52;5.30;99.90
4749;DHT22;2388;53.582;9.962;2023-02-15T02:11:18;5.30;99.90
4749;DHT22;2388;53.582;9.962;2023-02-15T02:13:44;5.20;99.90
4749;DHT22;2388;53.582;9.962;2023-02-15T02:25:06;5.30;99.90
4749;DHT22;2388;53.582;9.962;2023-02-15T02:38:32;5.30;99.90
4749;DHT22;2388;53.582;9.962;2023-02-15T02:41:25;5.30;99.90
4749;DHT22;2388;53.582;9.962;2023-02-15T02:44:04;5.30;99.90
4749;DHT22;2388;53.582;9.962;2023-02-15T02:46:54;5.20;99.90
4749;DHT22;2388;53.582;9.962;2023-02-15T02:49:37;5.10;99.90
4749;DHT22;2388;53.582;9.962;2023-02-15T02:52:06;5.10;99.90
4749;DHT22;2388;53.582;9.962;2023-02-15T02:54:34;5.10;99.90
4749;DHT22;2388;53.582;9.962;2023-02-15T02:57:04;5.10;99.90
4749;DHT22;2388;53.582;9.962;2023-02-15T02:59:37;5.20;99.90
4749;DHT22;2388;53.582;9.962;2023-02-15T03:02:10;5.10;99.90
4749;DHT22;2388;53.582;9.962;2023-02-15T03:04:41;5.10;99.90
4749;DHT22;2388;53.582;9.962;2023-02-15T03:07:14;5.20;99.90
4749;DHT22;2388;53.582;9.962;2023-02-15T03:09:49;5.20;99.90
4749;DHT22;2388;53.582;9.962;2023-02-15T03:12:19;5.20;99.90
4749;DHT22;2388;53.582;9.962;2023-02-15T03:14:51;5.20;99.90
4749;DHT22;2388;53.582;9.962;2023-02-15T03:17:20;5.20;99.90
4749;DHT22;2388;53.582;9.962;2023-02-15T03:19:48;5.20;99.90
4749;DHT22;2388;53.582;9.962;2023-02-15T03:22:20;5.20;99.90
4749;DHT22;2388;53.582;9.962;2023-02-15T03:25:08;5.30;99.90
4749;DHT22;2388;53.582;9.962;2023-02-15T03:27:38;5.30;99.90
4749;DHT22;2388;53.582;9.962;2023-02-15T03:30:07;5.30;99.90
4749;DHT22;2388;53.582;9.962;2023-02-15T03:32:35;5.30;99.90
4749;DHT22;2388;53.582;9.962;2023-02-15T03:35:01;5.30;99.90
4749;DHT22;2388;53.582;9.962;2023-02-15T03:40:21;5.20;99.90
4749;DHT22;2388;53.582;9.962;2023-02-15T03:45:47;4.90;99.90
4749;DHT22;2388;53.582;9.962;2023-02-15T03:48:26;4.90;99.90
4749;DHT22;2388;53.582;9.962;2023-02-15T03:51:00;4.90;99.90
4749;DHT22;2388;53.582;9.962;2023-02-15T03:53:47;4.90;99.90
4749;DHT22;2388;53.582;9.962;2023-02-15T03:56:13;4.90;99.90
4749;DHT22;2388;53.582;9.962;2023-02-15T03:58:39;4.90;99.90
4749;DHT22;2388;53.582;9.962;2023-02-15T04:01:39;4.90;99.90
4749;DHT22;2388;53.582;9.962;2023-02-15T04:04:38;4.90;99.90
4749;DHT22;2388;53.582;9.962;2023-02-15T04:07:07;4.90;99.90
4749;DHT22;2388;53.582;9.962;2023-02-15T04:09:33;4.90;99.90
4749;DHT22;2388;53.582;9.962;2023-02-15T04:12:17;4.90;99.90
4749;DHT22;2388;53.582;9.962;2023-02-15T04:14:43;4.90;99.90
4749;DHT22;2388;53.582;9.962;2023-02-15T04:17:27;4.80;99.90
4749;DHT22;2388;53.582;9.962;2023-02-15T04:19:53;4.80;99.90
4749;DHT22;2388;53.582;9.962;2023-02-15T04:22:37;4.80;99.90
4749;DHT22;2388;53.582;9.962;2023-02-15T04:25:21;5.50;99.90
4749;DHT22;2388;53.582;9.962;2023-02-15T04:27:50;4.80;99.90
4749;DHT22;2388;53.582;9.962;2023-02-15T04:30:18;4.90;99.90
4749;DHT22;2388;53.582;9.962;2023-02-15T04:32:44;4.90;99.90
4749;DHT22;2388;53.582;9.962;2023-02-15T04:35:10;5.00;99.90
4749;DHT22;2388;53.582;9.962;2023-02-15T04:37:37;4.90;99.90
4749;DHT22;2388;53.582;9.962;2023-02-15T04:40:04;4.90;99.90
4749;DHT22;2388;53.582;9.962;2023-02-15T04:42:30;4.80;99.90
4749;DHT22;2388;53.582;9.962;2023-02-15T04:44:55;4.80;99.90
4749;DHT22;2388;53.582;9.962;2023-02-15T04:47:21;4.80;99.90
4749;DHT22;2388;53.582;9.962;2023-02-15T04:49:47;4.80;99.90
4749;DHT22;2388;53.582;9.962;2023-02-15T04:52:12;4.80;99.90
4749;DHT22;2388;53.582;9.962;2023-02-15T04:54:38;4.80;99.90
4749;DHT22;2388;53.582;9.962;2023-02-15T04:57:04;4.70;99.90
4749;DHT22;2388;53.582;9.962;2023-02-15T04:59:30;4.80;99.90
4749;DHT22;2388;53.582;9.962;2023-02-15T05:01:56;4.80;99.90
4749;DHT22;2388;53.582;9.962;2023-02-15T05:04:21;4.80;99.90
4749;DHT22;2388;53.582;9.962;2023-02-15T05:06:47;4.70;99.90
4749;DHT22;2388;53.582;9.962;2023-02-15T05:09:13;4.70;99.90
4749;DHT22;2388;53.582;9.962;2023-02-15T05:11:38;4.70;99.90
4749;DHT22;2388;53.582;9.962;2023-02-15T05:14:05;4.70;99.90
4749;DHT22;2388;53.582;9.962;2023-02-15T05:16:31;4.60;99.90
4749;DHT22;2388;53.582;9.962;2023-02-15T05:18:56;4.60;99.90
4749;DHT22;2388;53.582;9.962;2023-02-15T05:21:22;4.70;99.90
4749;DHT22;2388;53.582;9.962;2023-02-15T05:23:47;4.60;99.90
4749;DHT22;2388;53.582;9.962;2023-02-15T05:26:18;4.70;99.90
4749;DHT22;2388;53.582;9.962;2023-02-15T05:29:02;4.60;99.90
4749;DHT22;2388;53.582;9.962;2023-02-15T05:31:28;4.60;99.90
4749;DHT22;2388;53.582;9.962;2023-02-15T05:33:55;4.50;99.90
4749;DHT22;2388;53.582;9.962;2023-02-15T05:36:20;4.50;99.90
4749;DHT22;2388;53.582;9.962;2023-02-15T05:38:46;4.50;99.90
4749;DHT22;2388;53.582;9.962;2023-02-15T05:41:11;4.50;99.90
4749;DHT22;2388;53.582;9.962;2023-02-15T05:43:38;5.40;99.90
4749;DHT22;2388;53.582;9.962;2023-02-15T05:46:04;4.50;99.90
4749;DHT22;2388;53.582;9.962;2023-02-15T05:48:31;4.60;99.90
4749;DHT22;2388;53.582;9.962;2023-02-15T05:51:05;4.50;99.90
4749;DHT22;2388;53.582;9.962;2023-02-15T05:53:32;3.60;99.90
4749;DHT22;2388;53.582;9.962;2023-02-15T05:56:00;4.50;99.90
4749;DHT22;2388;53.582;9.962;2023-02-15T05:58:32;4.40;99.90
4749;DHT22;2388;53.582;9.962;2023-02-15T06:00:57;4.30;99.90
4749;DHT22;2388;53.582;9.962;2023-02-15T06:03:24;4.30;99.90
4749;DHT22;2388;53.582;9.962;2023-02-15T06:05:51;4.30;99.90
4749;DHT22;2388;53.582;9.962;2023-02-15T06:08:17;4.30;99.90
4749;DHT22;2388;53.582;9.962;2023-02-15T06:10:42;4.20;99.90
4749;DHT22;2388;53.582;9.962;2023-02-15T06:13:08;4.20;99.90
4749;DHT22;2388;53.582;9.962;2023-02-15T06:15:33;4.30;99.90
4749;DHT22;2388;53.582;9.962;2023-02-15T06:17:59;4.40;99.90
4749;DHT22;2388;53.582;9.962;2023-02-15T06:20:24;4.30;99.90
4749;DHT22;2388;53.582;9.962;2023-02-15T06:22:50;4.30;99.90
4749;DHT22;2388;53.582;9.962;2023-02-15T06:25:15;4.30;99.90
4749;DHT22;2388;53.582;9.962;2023-02-15T06:27:41;4.30;99.90
4749;DHT22;2388;53.582;9.962;2023-02-15T06:30:08;4.30;99.90
4749;DHT22;2388;53.582;9.962;2023-02-15T06:32:34;4.30;99.90
4749;DHT22;2388;53.582;9.962;2023-02-15T06:35:00;4.20;99.90
4749;DHT22;2388;53.582;9.962;2023-02-15T06:37:25;4.30;99.90
4749;DHT22;2388;53.582;9.962;2023-02-15T06:39:51;4.30;99.90
4749;DHT22;2388;53.582;9.962;2023-02-15T06:42:16;4.30;99.90
4749;DHT22;2388;53.582;9.962;2023-02-15T06:44:43;4.30;99.90
4749;DHT22;2388;53.582;9.962;2023-02-15T06:47:09;4.30;99.90
4749;DHT22;2388;53.582;9.962;2023-02-15T06:49:36;4.30;99.90
4749;DHT22;2388;53.582;9.962;2023-02-15T06:52:02;4.30;99.90
4749;DHT22;2388;53.582;9.962;2023-02-15T06:54:27;4.20;99.90
4749;DHT22;2388;53.582;9.962;2023-02-15T06:56:53;4.30;99.90
4749;DHT22;2388;53.582;9.962;2023-02-15T06:59:18;4.20;99.90
4749;DHT22;2388;53.582;9.962;2023-02-15T07:01:43;4.30;99.90
4749;DHT22;2388;53.582;9.962;2023-02-15T07:04:09;4.40;99.90
4749;DHT22;2388;53.582;9.962;2023-02-15T07:06:35;4.40;99.90
4749;DHT22;2388;53.582;9.962;2023-02-15T07:09:01;4.50;99.90
4749;DHT22;2388;53.582;9.962;2023-02-15T07:11:27;4.50;99.90
4749;DHT22;2388;53.582;9.962;2023-02-15T07:14:11;4.40;99.90
4749;DHT22;2388;53.582;9.962;2023-02-15T07:16:36;4.40;99.90
4749;DHT22;2388;53.582;9.962;2023-02-15T07:19:02;4.40;99.90
4749;DHT22;2388;53.582;9.962;2023-02-15T07:21:27;4.30;99.90
4749;DHT22;2388;53.582;9.962;2023-02-15T07:23:56;4.30;99.90
4749;DHT22;2388;53.582;9.962;2023-02-15T07:26:22;4.30;99.90
4749;DHT22;2388;53.582;9.962;2023-02-15T07:28:47;4.30;99.90
4749;DHT22;2388;53.582;9.962;2023-02-15T07:31:13;4.30;99.90
4749;DHT22;2388;53.582;9.962;2023-02-15T07:33:38;4.40;99.90
4749;DHT22;2388;53.582;9.962;2023-02-15T07:36:04;4.40;99.90
4749;DHT22;2388;53.582;9.962;2023-02-15T07:38:34;4.40;99.90
4749;DHT22;2388;53.582;9.962;2023-02-15T07:41:01;4.40;99.90
4749;DHT22;2388;53.582;9.962;2023-02-15T07:43:27;4.40;99.90
4749;DHT22;2388;53.582;9.962;2023-02-15T07:45:53;4.40;99.90
4749;DHT22;2388;53.582;9.962;2023-02-15T07:48:19;4.40;99.90
4749;DHT22;2388;53.582;9.962;2023-02-15T07:50:44;4.30;99.90
4749;DHT22;2388;53.582;9.962;2023-02-15T07:53:10;4.20;99.90
4749;DHT22;2388;53.582;9.962;2023-02-15T07:55:35;4.20;99.90
4749;DHT22;2388;53.582;9.962;2023-02-15T07:58:01;4.20;99.90
4749;DHT22;2388;53.582;9.962;2023-02-15T08:00:27;4.30;99.90
4749;DHT22;2388;53.582;9.962;2023-02-15T08:02:55;4.30;99.90
4749;DHT22;2388;53.582;9.962;2023-02-15T08:05:44;4.30;99.90
4749;DHT22;2388;53.582;9.962;2023-02-15T08:08:10;4.40;99.90
4749;DHT22;2388;53.582;9.962;2023-02-15T08:14:18;4.30;99.90
4749;DHT22;2388;53.582;9.962;2023-02-15T08:16:51;4.20;99.90
4749;DHT22;2388;53.582;9.962;2023-02-15T08:19:19;4.20;99.90
4749;DHT22;2388;53.582;9.962;2023-02-15T08:21:52;4.20;99.90
4749;DHT22;2388;53.582;9.962;2023-02-15T08:24:20;4.20;99.90
4749;DHT22;2388;53.582;9.962;2023-02-15T08:26:47;4.20;99.90
4749;DHT22;2388;53.582;9.962;2023-02-15T08:29:14;4.30;99.90
4749;DHT22;2388;53.582;9.962;2023-02-15T08:31:40;4.30;99.90
4749;DHT22;2388;53.582;9.962;2023-02-15T08:34:10;4.30;99.90
4749;DHT22;2388;53.582;9.962;2023-02-15T08:36:37;4.20;99.90
4749;DHT22;2388;53.582;9.962;2023-02-15T08:39:05;4.30;99.90
4749;DHT22;2388;53.582;9.962;2023-02-15T08:41:35;4.30;99.90
4749;DHT22;2388;53.582;9.962;2023-02-15T08:44:05;4.30;99.90
4749;DHT22;2388;53.582;9.962;2023-02-15T08:46:33;4.30;99.90
4749;DHT22;2388;53.582;9.962;2023-02-15T08:48:59;4.40;99.90
4749;DHT22;2388;53.582;9.962;2023-02-15T08:51:27;4.40;99.90
4749;DHT22;2388;53.582;9.962;2023-02-15T08:53:54;4.30;99.90
4749;DHT22;2388;53.582;9.962;2023-02-15T08:56:32;4.40;99.90
4749;DHT22;2388;53.582;9.962;2023-02-15T08:58:58;4.40;99.90
4749;DHT22;2388;53.582;9.962;2023-02-15T09:01:26;4.40;99.90
4749;DHT22;2388;53.582;9.962;2023-02-15T09:03:55;4.30;99.90
4749;DHT22;2388;53.582;9.962;2023-02-15T09:06:22;4.30;99.90
4749;DHT22;2388;53.582;9.962;2023-02-15T09:08:48;4.30;99.90
4749;DHT22;2388;53.582;9.962;2023-02-15T09:11:20;4.30;99.90
4749;DHT22;2388;53.582;9.962;2023-02-15T09:13:55;4.20;99.90
4749;DHT22;2388;53.582;9.962;2023-02-15T09:16:22;4.30;99.90
4749;DHT22;2388;53.582;9.962;2023-02-15T09:18:49;4.20;99.90
4749;DHT22;2388;53.582;9.962;2023-02-15T09:21:17;4.50;99.90
4749;DHT22;2388;53.582;9.962;2023-02-15T09:23:45;4.70;99.90
4749;DHT22;2388;53.582;9.962;2023-02-15T09:26:13;5.00;99.90
4749;DHT22;2388;53.582;9.962;2023-02-15T09:28:39;5.10;99.90
4749;DHT22;2388;53.582;9.962;2023-02-15T09:33:39;5.30;99.90
4749;DHT22;2388;53.582;9.962;2023-02-15T09:38:41;5.30;99.90
4749;DHT22;2388;53.582;9.962;2023-02-15T09:41:38;5.40;99.90
4749;DHT22;2388;53.582;9.962;2023-02-15T09:44:22;5.60;99.90
4749;DHT22;2388;53.582;9.962;2023-02-15T09:55:44;5.60;99.90
4749;DHT22;2388;53.582;9.962;2023-02-15T09:58:24;5.50;99.90
4749;DHT22;2388;53.582;9.962;2023-02-15T10:00:59;5.50;99.90
4749;DHT22;2388;53.582;9.962;2023-02-15T10:03:56;5.60;99.90
4749;DHT22;2388;53.582;9.962;2023-02-15T10:06:48;5.50;99.90
4749;DHT22;2388;53.582;9.962;2023-02-15T10:12:22;5.60;99.90
4749;DHT22;2388;53.582;9.962;2023-02-15T10:15:18;5.60;99.90
4749;DHT22;2388;53.582;9.962;2023-02-15T10:18:06;5.70;99.90
4749;DHT22;2388;53.582;9.962;2023-02-15T10:21:03;5.80;99.90
4749;DHT22;2388;53.582;9.962;2023-02-15T10:23:47;5.70;99.90
4749;DHT22;2388;53.582;9.962;2023-02-15T10:26:19;5.60;99.90
4749;DHT22;2388;53.582;9.962;2023-02-15T10:28:50;5.60;99.90
4749;DHT22;2388;53.582;9.962;2023-02-15T10:31:23;5.60;99.90
4749;DHT22;2388;53.582;9.962;2023-02-15T10:34:08;5.60;99.90
4749;DHT22;2388;53.582;9.962;2023-02-15T10:39:16;5.30;99.90
4749;DHT22;2388;53.582;9.962;2023-02-15T10:41:53;5.20;99.90
4749;DHT22;2388;53.582;9.962;2023-02-15T10:44:49;5.10;99.90
4749;DHT22;2388;53.582;9.962;2023-02-15T10:47:50;5.00;99.90
4749;DHT22;2388;53.582;9.962;2023-02-15T10:50:36;5.00;99.90
4749;DHT22;2388;53.582;9.962;2023-02-15T10:55:46;5.10;99.90
4749;DHT22;2388;53.582;9.962;2023-02-15T11:01:18;5.10;99.90
4749;DHT22;2388;53.582;9.962;2023-02-15T11:04:05;5.10;99.90
4749;DHT22;2388;53.582;9.962;2023-02-15T11:06:34;4.90;99.90
4749;DHT22;2388;53.582;9.962;2023-02-15T11:09:03;5.10;99.90
4749;DHT22;2388;53.582;9.962;2023-02-15T11:11:36;5.20;99.90
4749;DHT22;2388;53.582;9.962;2023-02-15T11:14:14;5.20;99.90
4749;DHT22;2388;53.582;9.962;2023-02-15T11:16:44;5.30;99.90
4749;DHT22;2388;53.582;9.962;2023-02-15T11:19:20;5.40;99.90
4749;DHT22;2388;53.582;9.962;2023-02-15T11:21:50;5.30;99.90
4749;DHT22;2388;53.582;9.962;2023-02-15T11:24:19;5.40;99.90
4749;DHT22;2388;53.582;9.962;2023-02-15T11:26:57;5.50;99.90
4749;DHT22;2388;53.582;9.962;2023-02-15T11:29:33;5.90;99.90
4749;DHT22;2388;53.582;9.962;2023-02-15T11:32:02;6.60;99.90
4749;DHT22;2388;53.582;9.962;2023-02-15T11:34:40;7.20;99.90
4749;DHT22;2388;53.582;9.962;2023-02-15T11:37:18;7.70;99.90
4749;DHT22;2388;53.582;9.962;2023-02-15T11:39:45;8.20;99.90
4749;DHT22;2388;53.582;9.962;2023-02-15T11:42:20;8.40;99.90
4749;DHT22;2388;53.582;9.962;2023-02-15T11:44:59;8.20;99.90
4749;DHT22;2388;53.582;9.962;2023-02-15T11:47:26;7.90;99.90
4749;DHT22;2388;53.582;9.962;2023-02-15T11:49:52;7.50;99.90
4749;DHT22;2388;53.582;9.962;2023-02-15T11:52:18;7.40;99.90
4749;DHT22;2388;53.582;9.962;2023-02-15T11:54:48;7.20;99.90
4749;DHT22;2388;53.582;9.962;2023-02-15T11:57:23;7.00;99.90
4749;DHT22;2388;53.582;9.962;2023-02-15T12:00:01;6.90;99.90
4749;DHT22;2388;53.582;9.962;2023-02-15T12:02:31;6.80;99.90
4749;DHT22;2388;53.582;9.962;2023-02-15T12:05:13;6.80;99.90
4749;DHT22;2388;53.582;9.962;2023-02-15T12:08:16;6.80;99.90
4749;DHT22;2388;53.582;9.962;2023-02-15T12:11:06;6.90;99.90
4749;DHT22;2388;53.582;9.962;2023-02-15T12:13:57;7.00;99.90
4749;DHT22;2388;53.582;9.962;2023-02-15T12:16:23;7.10;99.90
4749;DHT22;2388;53.582;9.962;2023-02-15T12:18:50;7.10;99.90
4749;DHT22;2388;53.582;9.962;2023-02-15T12:21:32;7.20;99.90
4749;DHT22;2388;53.582;9.962;2023-02-15T12:24:03;7.30;99.90
4749;DHT22;2388;53.582;9.962;2023-02-15T12:26:35;7.40;99.90
4749;DHT22;2388;53.582;9.962;2023-02-15T12:29:11;7.50;99.90
4749;DHT22;2388;53.582;9.962;2023-02-15T12:31:44;7.60;99.90
4749;DHT22;2388;53.582;9.962;2023-02-15T12:36:46;7.90;99.90
4749;DHT22;2388;53.582;9.962;2023-02-15T12:39:24;7.90;99.90
4749;DHT22;2388;53.582;9.962;2023-02-15T12:44:23;8.10;99.90
4749;DHT22;2388;53.582;9.962;2023-02-15T12:49:32;8.30;99.90
4749;DHT22;2388;53.582;9.962;2023-02-15T12:52:03;8.40;99.90
4749;DHT22;2388;53.582;9.962;2023-02-15T12:56:58;8.60;99.90
4749;DHT22;2388;53.582;9.962;2023-02-15T12:59:24;8.70;99.90
4749;DHT22;2388;53.582;9.962;2023-02-15T13:01:53;8.80;99.90
4749;DHT22;2388;53.582;9.962;2023-02-15T13:04:28;8.90;99.90
4749;DHT22;2388;53.582;9.962;2023-02-15T13:06:57;8.90;99.90
4749;DHT22;2388;53.582;9.962;2023-02-15T13:12:20;9.20;99.90
4749;DHT22;2388;53.582;9.962;2023-02-15T13:14:48;9.30;99.90
4749;DHT22;2388;53.582;9.962;2023-02-15T13:17:17;9.30;99.90
4749;DHT22;2388;53.582;9.962;2023-02-15T13:19:47;9.50;99.90
4749;DHT22;2388;53.582;9.962;2023-02-15T13:22:27;9.50;99.90
4749;DHT22;2388;53.582;9.962;2023-02-15T13:24:56;9.60;99.90
4749;DHT22;2388;53.582;9.962;2023-02-15T13:27:29;9.60;99.90
4749;DHT22;2388;53.582;9.962;2023-02-15T13:29:58;9.50;99.90
4749;DHT22;2388;53.582;9.962;2023-02-15T13:32:30;9.50;99.90
4749;DHT22;2388;53.582;9.962;2023-02-15T13:34:58;9.60;99.90
4749;DHT22;2388;53.582;9.962;2023-02-15T13:40:20;9.50;99.90
4749;DHT22;2388;53.582;9.962;2023-02-15T13:46:01;9.50;99.90
4749;DHT22;2388;53.582;9.962;2023-02-15T13:49:04;9.40;99.90
4749;DHT22;2388;53.582;9.962;2023-02-15T13:52:07;9.30;99.90
4749;DHT22;2388;53.582;9.962;2023-02-15T14:00:11;9.30;99.90
4749;DHT22;2388;53.582;9.962;2023-02-15T14:03:38;9.30;99.90
4749;DHT22;2388;53.582;9.962;2023-02-15T14:06:00;9.30;99.90
4749;DHT22;2388;53.582;9.962;2023-02-15T14:14:29;9.60;99.90
4749;DHT22;2388;53.582;9.962;2023-02-15T14:17:12;9.60;99.90
4749;DHT22;2388;53.582;9.962;2023-02-15T14:20:04;9.60;99.90
4749;DHT22;2388;53.582;9.962;2023-02-15T14:22:44;9.60;99.90
4749;DHT22;2388;53.582;9.962;2023-02-15T14:25:28;9.70;99.90
4749;DHT22;2388;53.582;9.962;2023-02-15T14:28:05;9.70;99.90
4749;DHT22;2388;53.582;9.962;2023-02-15T14:30:39;9.00;99.90
4749;DHT22;2388;53.582;9.962;2023-02-15T14:33:32;9.70;99.90
4749;DHT22;2388;53.582;9.962;2023-02-15T14:36:00;9.50;99.90
4749;DHT22;2388;53.582;9.962;2023-02-15T14:41:13;9.40;99.90
4749;DHT22;2388;53.582;9.962;2023-02-15T14:46:53;9.30;99.90
4749;DHT22;2388;53.582;9.962;2023-02-15T14:49:25;9.30;99.90
4749;DHT22;2388;53.582;9.962;2023-02-15T14:56:42;9.10;99.90
4749;DHT22;2388;53.582;9.962;2023-02-15T14:59:14;9.10;99.90
4749;DHT22;2388;53.582;9.962;2023-02-15T15:01:42;9.00;99.90
4749;DHT22;2388;53.582;9.962;2023-02-15T15:07:09;9.00;99.90
4749;DHT22;2388;53.582;9.962;2023-02-15T15:09:40;9.00;99.90
4749;DHT22;2388;53.582;9.962;2023-02-15T15:14:48;9.00;99.90
4749;DHT22;2388;53.582;9.962;2023-02-15T15:22:30;8.90;99.90
4749;DHT22;2388;53.582;9.962;2023-02-15T15:25:11;8.90;99.90
4749;DHT22;2388;53.582;9.962;2023-02-15T15:27:45;8.90;99.90
4749;DHT22;2388;53.582;9.962;2023-02-15T15:32:47;8.90;99.90
4749;DHT22;2388;53.582;9.962;2023-02-15T15:49:32;8.50;99.90
4749;DHT22;2388;53.582;9.962;2023-02-15T15:52:10;8.50;99.90
4749;DHT22;2388;53.582;9.962;2023-02-15T15:54:38;8.40;99.90
4749;DHT22;2388;53.582;9.962;2023-02-15T15:57:05;8.30;99.90
4749;DHT22;2388;53.582;9.962;2023-02-15T15:59:44;8.30;99.90
4749;DHT22;2388;53.582;9.962;2023-02-15T16:02:14;8.30;99.90
4749;DHT22;2388;53.582;9.962;2023-02-15T16:04:43;8.30;99.90
4749;DHT22;2388;53.582;9.962;2023-02-15T16:10:04;8.20;99.90
4749;DHT22;2388;53.582;9.962;2023-02-15T16:12:35;8.20;99.90
4749;DHT22;2388;53.582;9.962;2023-02-15T16:15:14;8.10;99.90
4749;DHT22;2388;53.582;9.962;2023-02-15T16:17:41;8.00;99.90
4749;DHT22;2388;53.582;9.962;2023-02-15T16:20:18;8.00;99.90
4749;DHT22;2388;53.582;9.962;2023-02-15T16:22:57;8.00;99.90
4749;DHT22;2388;53.582;9.962;2023-02-15T16:25:35;7.90;99.90
4749;DHT22;2388;53.582;9.962;2023-02-15T16:28:07;7.90;99.90
4749;DHT22;2388;53.582;9.962;2023-02-15T16:30:35;7.90;99.90
4749;DHT22;2388;53.582;9.962;2023-02-15T16:33:14;7.80;99.90
4749;DHT22;2388;53.582;9.962;2023-02-15T16:35:58;7.70;99.90
4749;DHT22;2388;53.582;9.962;2023-02-15T16:41:13;7.70;99.90
4749;DHT22;2388;53.582;9.962;2023-02-15T16:43:40;7.70;99.90
4749;DHT22;2388;53.582;9.962;2023-02-15T16:46:12;7.70;99.90
4749;DHT22;2388;53.582;9.962;2023-02-15T16:48:44;7.60;99.90
4749;DHT22;2388;53.582;9.962;2023-02-15T16:51:19;7.50;99.90
4749;DHT22;2388;53.582;9.962;2023-02-15T16:53:47;7.50;99.90
4749;DHT22;2388;53.582;9.962;2023-02-15T16:56:16;7.50;99.90
4749;DHT22;2388;53.582;9.962;2023-02-15T16:58:50;7.50;99.90
4749;DHT22;2388;53.582;9.962;2023-02-15T17:01:16;7.40;99.90
4749;DHT22;2388;53.582;9.962;2023-02-15T17:03:48;7.40;99.90
4749;DHT22;2388;53.582;9.962;2023-02-15T17:06:24;7.40;99.90
4749;DHT22;2388;53.582;9.962;2023-02-15T17:08:51;7.30;99.90
4749;DHT22;2388;53.582;9.962;2023-02-15T17:11:22;7.20;99.90
4749;DHT22;2388;53.582;9.962;2023-02-15T17:16:47;7.10;99.90
4749;DHT22;2388;53.582;9.962;2023-02-15T17:19:21;7.10;99.90
4749;DHT22;2388;53.582;9.962;2023-02-15T17:21:58;7.10;99.90
4749;DHT22;2388;53.582;9.962;2023-02-15T17:26:59;7.10;99.90
4749;DHT22;2388;53.582;9.962;2023-02-15T17:29:39;7.00;99.90
4749;DHT22;2388;53.582;9.962;2023-02-15T17:32:14;7.00;99.90
4749;DHT22;2388;53.582;9.962;2023-02-15T17:34:42;7.00;99.90
4749;DHT22;2388;53.582;9.962;2023-02-15T17:37:41;7.00;99.90
4749;DHT22;2388;53.582;9.962;2023-02-15T17:40:34;7.00;99.90
4749;DHT22;2388;53.582;9.962;2023-02-15T17:43:00;7.00;99.90
4749;DHT22;2388;53.582;9.962;2023-02-15T17:45:32;7.00;99.90
4749;DHT22;2388;53.582;9.962;2023-02-15T17:47:58;7.00;99.90
4749;DHT22;2388;53.582;9.962;2023-02-15T17:50:27;7.00;99.90
4749;DHT22;2388;53.582;9.962;2023-02-15T17:52:53;6.90;99.90
4749;DHT22;2388;53.582;9.962;2023-02-15T17:55:22;6.90;99.90
4749;DHT22;2388;53.582;9.962;2023-02-15T17:58:03;6.90;99.90
4749;DHT22;2388;53.582;9.962;2023-02-15T18:00:30;6.80;99.90
4749;DHT22;2388;53.582;9.962;2023-02-15T18:03:15;6.80;99.90
4749;DHT22;2388;53.582;9.962;2023-02-15T18:05:59;6.80;99.90
4749;DHT22;2388;53.582;9.962;2023-02-15T18:08:43;6.80;99.90
4749;DHT22;2388;53.582;9.962;2023-02-15T18:11:27;6.70;99.90
4749;DHT22;2388;53.582;9.962;2023-02-15T18:14:07;6.70;99.90
4749;DHT22;2388;53.582;9.962;2023-02-15T18:16:39;6.60;99.90
4749;DHT22;2388;53.582;9.962;2023-02-15T18:19:13;6.60;99.90
4749;DHT22;2388;53.582;9.962;2023-02-15T18:21:39;6.60;99.90
4749;DHT22;2388;53.582;9.962;2023-02-15T18:24:04;6.60;99.90
4749;DHT22;2388;53.582;9.962;2023-02-15T18:26:30;6.60;99.90
4749;DHT22;2388;53.582;9.962;2023-02-15T18:28:55;6.50;99.90
4749;DHT22;2388;53.582;9.962;2023-02-15T18:31:21;6.50;99.90
4749;DHT22;2388;53.582;9.962;2023-02-15T18:33:50;6.50;99.90
4749;DHT22;2388;53.582;9.962;2023-02-15T18:36:22;6.50;99.90
4749;DHT22;2388;53.582;9.962;2023-02-15T18:38:48;6.50;99.90
4749;DHT22;2388;53.582;9.962;2023-02-15T18:41:17;6.50;99.90
4749;DHT22;2388;53.582;9.962;2023-02-15T18:43:44;6.50;99.90
4749;DHT22;2388;53.582;9.962;2023-02-15T18:46:10;6.50;99.90
4749;DHT22;2388;53.582;9.962;2023-02-15T18:48:35;6.50;99.90
4749;DHT22;2388;53.582;9.962;2023-02-15T18:51:01;6.50;99.90
4749;DHT22;2388;53.582;9.962;2023-02-15T18:53:26;6.40;99.90
4749;DHT22;2388;53.582;9.962;2023-02-15T18:55:52;6.40;99.90
4749;DHT22;2388;53.582;9.962;2023-02-15T18:58:20;6.40;99.90
4749;DHT22;2388;53.582;9.962;2023-02-15T19:00:46;6.40;99.90